Time;durP1;ratioP1;P1;durP2;ratioP2;P2;SDS_P1;SDS_P2;PMS_P1;PMS_P2;Temp;Humidity;BMP_temperature;BMP_pressure;BME280_temperature;BME280_humidity;BME280_pressure;Samples;Min_cycle;Max_cycle;Signal;HPM_P1;HPM_P2
2023/05/03 00:00:07;;;;;;;6.35;5.13;;;16.00;37.80;;;;;;5095172;28;20446;-51
2023/05/03 00:02:34;;;;;;;6.05;4.65;;;16.00;37.70;;;;;;5094979;28;20176;-51
2023/05/03 00:05:00;;;;;;;10.60;6.53;;;15.90;37.60;;;;;;5095248;28;20570;-51
2023/05/03 00:07:26;;;;;;;7.70;5.87;;;15.90;37.40;;;;;;5095176;28;20168;-51
2023/05/03 00:09:51;;;;;;;9.73;6.27;;;15.90;37.60;;;;;;5094847;28;20767;-52
2023/05/03 00:12:17;;;;;;;8.80;4.83;;;15.90;37.50;;;;;;5094786;28;20172;-52
2023/05/03 00:14:44;;;;;;;5.90;5.13;;;15.90;37.40;;;;;;5095071;28;20203;-51
2023/05/03 00:17:11;;;;;;;8.57;5.82;;;15.90;37.40;;;;;;5095005;28;20194;-51
2023/05/03 00:19:38;;;;;;;5.88;5.13;;;15.90;37.30;;;;;;5094769;28;20243;-51
2023/05/03 00:22:04;;;;;;;6.25;4.82;;;15.80;37.20;;;;;;5094676;28;20172;-51
2023/05/03 00:24:30;;;;;;;15.17;6.50;;;15.80;37.30;;;;;;5095015;28;20181;-51
2023/05/03 00:26:55;;;;;;;7.30;5.90;;;15.80;37.40;;;;;;5094762;28;20164;-51
2023/05/03 00:29:21;;;;;;;5.93;5.20;;;15.80;37.40;;;;;;5094726;28;20168;-51
2023/05/03 00:31:47;;;;;;;13.50;5.95;;;15.80;37.40;;;;;;5094465;28;20190;-51
2023/05/03 00:34:13;;;;;;;8.00;5.63;;;15.80;37.40;;;;;;5094644;28;20176;-51
2023/05/03 00:36:39;;;;;;;9.23;6.40;;;15.80;38.10;;;;;;5094974;28;20216;-51
2023/05/03 00:39:05;;;;;;;7.00;5.83;;;15.80;37.60;;;;;;5094405;28;20196;-51
2023/05/03 00:41:30;;;;;;;10.93;5.63;;;15.80;37.20;;;;;;5094707;28;20454;-51
2023/05/03 00:43:56;;;;;;;8.67;5.40;;;15.80;37.30;;;;;;5094305;28;20161;-51
2023/05/03 00:46:22;;;;;;;13.07;5.60;;;15.80;37.20;;;;;;5093716;28;20171;-52
2023/05/03 00:48:48;;;;;;;7.43;6.50;;;15.70;37.20;;;;;;5094380;28;20172;-51
2023/05/03 00:51:15;;;;;;;7.68;5.20;;;15.70;37.10;;;;;;5094316;28;20195;-51
2023/05/03 00:53:42;;;;;;;6.82;6.13;;;15.60;36.90;;;;;;5093920;28;20221;-51
2023/05/03 00:56:08;;;;;;;8.57;5.80;;;15.60;37.00;;;;;;5094246;28;20275;-51
2023/05/03 00:58:38;;;;;;;5.93;5.30;;;15.60;36.90;;;;;;5094083;28;20871;-51
2023/05/03 01:01:06;;;;;;;14.45;6.75;;;15.50;37.10;;;;;;5094229;28;20324;-52
2023/05/03 01:03:32;;;;;;;8.82;6.15;;;15.50;36.70;;;;;;5093859;28;20704;-51
2023/05/03 01:06:24;;;;;;;8.30;6.07;;;15.40;36.70;;;;;;5094049;28;20639;-51
2023/05/03 01:09:00;;;;;;;7.90;6.15;;;15.30;36.80;;;;;;5094280;28;20565;-51
2023/05/03 01:12:13;;;;;;;8.68;6.30;;;15.30;36.90;;;;;;5093895;28;20222;-51
2023/05/03 01:15:01;;;;;;;12.52;5.60;;;15.30;36.90;;;;;;5093486;28;20191;-51
2023/05/03 01:17:33;;;;;;;10.25;5.72;;;15.20;36.90;;;;;;5094116;28;20520;-51
2023/05/03 01:20:07;;;;;;;7.40;5.75;;;15.20;37.00;;;;;;5093698;28;20208;-52
2023/05/03 01:22:57;;;;;;;8.98;6.38;;;15.20;37.00;;;;;;5093494;28;20178;-51
2023/05/03 01:25:23;;;;;;;8.90;5.88;;;15.30;37.30;;;;;;5093768;28;20153;-52
2023/05/03 01:27:49;;;;;;;7.78;5.80;;;15.30;37.30;;;;;;5093639;28;20198;-52
2023/05/03 01:30:15;;;;;;;13.85;7.60;;;15.30;37.00;;;;;;5093407;28;20211;-52
2023/05/03 01:33:17;;;;;;;5.90;4.55;;;15.20;36.70;;;;;;5093380;28;20690;-52
2023/05/03 01:35:51;;;;;;;6.82;4.85;;;15.20;36.40;;;;;;5093825;28;20168;-52
2023/05/03 01:38:18;;;;;;;11.75;5.38;;;15.20;36.20;;;;;;5093263;28;20678;-52
2023/05/03 01:40:50;;;;;;;7.20;5.05;;;15.20;36.40;;;;;;5093325;28;20222;-52
2023/05/03 01:43:18;;;;;;;8.43;5.47;;;15.10;36.20;;;;;;5093125;28;20247;-52
2023/05/03 01:45:44;;;;;;;6.75;4.38;;;15.10;36.00;;;;;;5093230;28;20644;-52
2023/05/03 01:48:15;;;;;;;6.55;4.25;;;15.10;36.30;;;;;;5093461;28;20186;-52
2023/05/03 01:50:41;;;;;;;6.07;4.30;;;15.10;35.60;;;;;;5093215;28;20587;-52
2023/05/03 01:53:07;;;;;;;5.90;4.50;;;15.00;35.20;;;;;;5093120;28;20229;-52
2023/05/03 01:55:33;;;;;;;9.57;7.23;;;15.00;35.20;;;;;;5093108;28;20163;-52
2023/05/03 01:57:58;;;;;;;7.87;4.40;;;15.00;34.90;;;;;;5092890;28;20413;-52
2023/05/03 02:00:24;;;;;;;7.00;4.60;;;14.90;34.70;;;;;;5092878;28;20180;-52
2023/05/03 02:02:50;;;;;;;6.80;3.72;;;14.90;34.40;;;;;;5092781;28;20410;-52
2023/05/03 02:05:16;;;;;;;8.13;3.50;;;14.90;34.40;;;;;;5092889;28;20233;-52
2023/05/03 02:07:42;;;;;;;6.87;4.17;;;14.80;34.30;;;;;;5092867;28;20769;-52
2023/05/03 02:10:13;;;;;;;5.57;3.80;;;14.80;34.10;;;;;;5093021;28;20192;-52
2023/05/03 02:12:48;;;;;;;5.00;3.60;;;14.80;34.00;;;;;;5092734;28;20674;-52
2023/05/03 02:15:13;;;;;;;5.00;3.50;;;14.70;34.20;;;;;;5092776;28;20194;-52
2023/05/03 02:17:41;;;;;;;5.20;3.73;;;14.70;33.70;;;;;;5092788;28;20206;-52
2023/05/03 02:20:10;;;;;;;6.38;3.70;;;14.70;34.20;;;;;;5092455;28;20238;-52
2023/05/03 02:22:36;;;;;;;4.25;3.33;;;14.70;34.20;;;;;;5092425;28;20191;-52
2023/05/03 02:25:01;;;;;;;4.80;3.00;;;14.70;34.00;;;;;;5092699;28;20632;-52
2023/05/03 02:27:27;;;;;;;4.90;3.53;;;14.60;34.10;;;;;;5092383;28;20171;-52
2023/05/03 02:29:53;;;;;;;10.73;3.60;;;14.70;34.20;;;;;;5092498;28;20274;-52
2023/05/03 02:32:19;;;;;;;4.90;3.90;;;14.60;34.30;;;;;;5092202;28;20244;-52
2023/05/03 02:34:47;;;;;;;5.18;3.83;;;14.60;34.10;;;;;;5092378;28;20267;-52
2023/05/03 02:37:13;;;;;;;5.20;3.75;;;14.60;33.80;;;;;;5092320;28;20186;-52
2023/05/03 02:39:39;;;;;;;5.70;4.00;;;14.60;34.00;;;;;;5092243;28;20207;-52
2023/05/03 02:42:05;;;;;;;3.20;2.90;;;14.60;33.70;;;;;;5092059;28;20406;-52
2023/05/03 02:44:30;;;;;;;4.82;3.38;;;14.60;34.00;;;;;;5092335;28;20221;-52
2023/05/03 02:46:56;;;;;;;5.13;3.43;;;14.60;33.70;;;;;;5092261;28;20176;-52
2023/05/03 02:49:22;;;;;;;6.30;3.60;;;14.60;33.70;;;;;;5092161;28;20171;-52
2023/05/03 02:51:47;;;;;;;6.80;3.37;;;14.50;33.50;;;;;;5092037;28;20167;-52
2023/05/03 02:54:13;;;;;;;4.43;3.40;;;14.50;33.50;;;;;;5092227;28;20204;-52
2023/05/03 02:56:39;;;;;;;4.70;3.30;;;14.50;33.80;;;;;;5092102;28;20168;-52
2023/05/03 02:59:05;;;;;;;6.30;4.30;;;14.50;33.70;;;;;;5092062;28;20199;-52
2023/05/03 03:01:32;;;;;;;4.97;4.33;;;14.50;33.80;;;;;;5092296;28;20433;-52
2023/05/03 03:03:58;;;;;;;7.07;4.35;;;14.40;34.00;;;;;;5092209;28;20168;-52
2023/05/03 03:06:24;;;;;;;6.30;3.63;;;14.40;33.90;;;;;;5092087;28;20588;-52
2023/05/03 03:08:50;;;;;;;6.23;4.27;;;14.40;34.30;;;;;;5093795;28;20405;-52
2023/05/03 03:11:16;;;;;;;8.90;3.40;;;14.50;34.50;;;;;;5096106;28;20260;-52
2023/05/03 03:13:41;;;;;;;5.07;3.90;;;14.40;34.20;;;;;;5096311;28;20182;-52
2023/05/03 03:16:08;;;;;;;5.73;3.60;;;14.50;34.40;;;;;;5096170;28;20808;-52
2023/05/03 03:18:34;;;;;;;8.25;4.97;;;14.50;34.30;;;;;;5096201;28;20203;-52
2023/05/03 03:21:03;;;;;;;4.97;4.50;;;14.50;34.10;;;;;;5096057;28;20188;-52
2023/05/03 03:23:29;;;;;;;5.40;3.83;;;14.50;34.10;;;;;;5095684;28;20191;-52
2023/05/03 03:25:55;;;;;;;5.70;4.30;;;14.40;33.90;;;;;;5095991;28;20206;-52
2023/05/03 03:28:20;;;;;;;10.63;5.67;;;14.40;33.80;;;;;;5095891;28;20483;-52
2023/05/03 03:30:46;;;;;;;6.30;5.70;;;14.40;34.00;;;;;;5095872;28;20460;-52
2023/05/03 03:33:12;;;;;;;8.35;5.38;;;14.30;34.30;;;;;;5095848;28;20202;-52
2023/05/03 03:35:38;;;;;;;10.67;5.43;;;14.30;34.30;;;;;;5095756;28;20640;-52
2023/05/03 03:38:04;;;;;;;7.95;4.88;;;14.30;34.40;;;;;;5095596;28;20651;-52
2023/05/03 03:40:30;;;;;;;8.03;4.10;;;14.30;34.50;;;;;;5095459;28;20199;-52
2023/05/03 03:42:56;;;;;;;9.87;6.07;;;14.30;34.50;;;;;;5095467;28;20770;-52
2023/05/03 03:45:22;;;;;;;5.97;3.90;;;14.30;34.60;;;;;;5095595;28;20808;-52
2023/05/03 03:47:48;;;;;;;8.87;5.87;;;14.30;34.70;;;;;;5095492;28;20955;-52
2023/05/03 03:50:13;;;;;;;4.97;4.20;;;14.30;34.60;;;;;;5095331;28;20249;-52
2023/05/03 03:52:39;;;;;;;8.37;5.20;;;14.30;34.80;;;;;;5095272;28;20176;-52
2023/05/03 03:55:06;;;;;;;5.87;5.23;;;14.20;34.70;;;;;;5095321;28;20514;-52
2023/05/03 03:57:32;;;;;;;6.90;5.90;;;14.20;34.80;;;;;;5095325;28;20180;-52
2023/05/03 03:59:58;;;;;;;5.87;5.27;;;14.20;34.90;;;;;;5095194;28;20208;-52
2023/05/03 04:02:24;;;;;;;7.30;5.43;;;14.10;35.00;;;;;;5095090;28;20398;-51
2023/05/03 04:04:50;;;;;;;8.57;5.57;;;14.20;35.10;;;;;;5095241;28;20170;-52
2023/05/03 04:07:16;;;;;;;7.97;5.80;;;14.10;35.00;;;;;;5095110;28;20160;-51
2023/05/03 04:09:43;;;;;;;5.83;5.33;;;14.10;35.30;;;;;;5095063;28;20981;-52
2023/05/03 04:12:09;;;;;;;6.40;5.80;;;14.10;35.20;;;;;;5095015;28;20179;-52
2023/05/03 04:14:34;;;;;;;8.80;6.20;;;14.10;35.20;;;;;;5095023;28;20525;-52
2023/05/03 04:17:00;;;;;;;9.43;5.37;;;14.10;35.40;;;;;;5094946;28;20172;-52
2023/05/03 04:19:26;;;;;;;8.43;5.70;;;14.10;35.40;;;;;;5094241;28;20206;-52
2023/05/03 04:21:52;;;;;;;10.20;5.40;;;14.10;35.40;;;;;;5094150;28;20168;-52
2023/05/03 04:24:18;;;;;;;6.77;4.50;;;14.10;35.40;;;;;;5094821;28;20444;-51
2023/05/03 04:26:44;;;;;;;8.27;5.50;;;14.10;35.10;;;;;;5094790;28;20490;-52
2023/05/03 04:29:10;;;;;;;7.70;5.10;;;14.10;35.10;;;;;;5094736;28;20168;-52
2023/05/03 04:31:38;;;;;;;10.32;4.53;;;14.10;35.30;;;;;;5094405;28;20544;-52
2023/05/03 04:34:04;;;;;;;6.88;4.00;;;14.10;34.70;;;;;;5094313;28;20672;-52
2023/05/03 04:36:31;;;;;;;8.85;4.75;;;14.10;34.80;;;;;;5094600;28;20334;-52
2023/05/03 04:38:57;;;;;;;5.38;3.60;;;14.00;35.40;;;;;;5094392;28;20230;-50
2023/05/03 04:41:23;;;;;;;7.97;4.27;;;14.10;34.90;;;;;;5094418;28;20184;-51
2023/05/03 04:43:49;;;;;;;4.97;3.85;;;14.10;35.00;;;;;;5094447;28;20472;-52
2023/05/03 04:46:15;;;;;;;7.82;5.00;;;14.10;34.90;;;;;;5094352;28;20239;-51
2023/05/03 04:48:41;;;;;;;6.00;3.92;;;14.10;34.80;;;;;;5094376;28;20225;-51
2023/05/03 04:51:07;;;;;;;7.15;4.55;;;14.20;34.80;;;;;;5094152;28;20242;-53
2023/05/03 04:53:33;;;;;;;4.53;4.13;;;14.20;34.80;;;;;;5094322;28;20206;-51
2023/05/03 04:55:58;;;;;;;7.37;3.73;;;14.20;34.70;;;;;;5094582;28;20640;-52
2023/05/03 04:58:24;;;;;;;5.00;3.90;;;14.30;34.80;;;;;;5094131;28;20195;-53
2023/05/03 05:00:50;;;;;;;10.30;4.43;;;14.30;34.50;;;;;;5094038;28;20191;-50
2023/05/03 05:03:16;;;;;;;4.70;3.10;;;14.30;34.50;;;;;;5093790;28;20930;-50
2023/05/03 05:05:42;;;;;;;6.53;5.17;;;14.30;34.40;;;;;;5093859;28;20179;-52
2023/05/03 05:08:07;;;;;;;7.00;4.30;;;14.30;34.50;;;;;;5093855;28;20172;-53
2023/05/03 05:10:37;;;;;;;5.70;3.03;;;14.40;34.10;;;;;;5093954;28;20199;-50
2023/05/03 05:13:03;;;;;;;5.38;3.47;;;14.40;33.60;;;;;;5093679;28;20172;-53
2023/05/03 05:15:29;;;;;;;10.27;4.10;;;14.40;33.90;;;;;;5093854;28;20172;-51
2023/05/03 05:17:55;;;;;;;9.73;3.90;;;14.40;33.70;;;;;;5093707;28;20225;-50
2023/05/03 05:20:21;;;;;;;4.32;3.50;;;14.30;33.70;;;;;;5093662;28;20223;-51
2023/05/03 05:22:46;;;;;;;9.10;4.20;;;14.30;33.10;;;;;;5093638;28;20200;-52
2023/05/03 05:25:12;;;;;;;5.00;3.03;;;14.30;33.60;;;;;;5093923;28;20203;-53
2023/05/03 05:27:38;;;;;;;6.60;4.00;;;14.30;33.90;;;;;;5093613;28;20164;-51
2023/05/03 05:30:05;;;;;;;4.60;3.20;;;14.30;33.80;;;;;;5093396;28;20206;-51
2023/05/03 05:32:31;;;;;;;4.55;3.00;;;14.40;33.30;;;;;;5092873;28;20174;-53
2023/05/03 05:34:56;;;;;;;3.70;2.60;;;14.40;33.50;;;;;;5093444;28;20647;-51
2023/05/03 05:37:23;;;;;;;8.67;3.80;;;14.50;33.80;;;;;;5093633;28;20513;-50
2023/05/03 05:39:49;;;;;;;4.60;3.47;;;14.50;33.30;;;;;;5093211;28;20199;-53
2023/05/03 05:42:15;;;;;;;6.77;3.00;;;14.50;33.30;;;;;;5093328;28;20689;-50
2023/05/03 05:44:40;;;;;;;3.87;2.90;;;14.60;33.20;;;;;;5093248;28;20857;-50
2023/05/03 05:47:07;;;;;;;5.93;3.50;;;14.60;32.60;;;;;;5093177;28;20168;-52
2023/05/03 05:49:33;;;;;;;9.85;3.90;;;14.70;33.00;;;;;;5093051;28;20771;-52
2023/05/03 05:51:58;;;;;;;5.30;3.63;;;14.70;33.10;;;;;;5092892;28;20167;-50
2023/05/03 05:54:24;;;;;;;4.50;3.40;;;14.70;32.60;;;;;;5093298;28;20622;-52
2023/05/03 05:56:50;;;;;;;3.93;3.03;;;14.70;32.70;;;;;;5093390;28;20172;-53
2023/05/03 05:59:15;;;;;;;5.73;4.10;;;14.80;32.90;;;;;;5093011;28;20549;-50
2023/05/03 06:01:44;;;;;;;3.93;3.53;;;14.90;33.00;;;;;;5092852;28;20192;-53
2023/05/03 06:04:11;;;;;;;6.25;4.07;;;14.90;33.20;;;;;;5092755;28;20401;-50
2023/05/03 06:06:37;;;;;;;5.55;3.75;;;15.00;32.80;;;;;;5093090;28;20176;-50
2023/05/03 06:09:02;;;;;;;5.50;3.10;;;15.10;32.70;;;;;;5092797;28;20237;-52
2023/05/03 06:11:29;;;;;;;4.37;3.30;;;15.10;32.30;;;;;;5092710;28;20491;-53
2023/05/03 06:13:56;;;;;;;6.10;3.15;;;15.20;32.60;;;;;;5092786;28;20182;-50
2023/05/03 06:16:23;;;;;;;8.18;4.20;;;15.20;32.60;;;;;;5092473;28;20225;-52
2023/05/03 06:18:49;;;;;;;4.85;3.47;;;15.30;32.10;;;;;;5092505;28;20730;-53
2023/05/03 06:21:14;;;;;;;5.20;3.50;;;15.30;32.20;;;;;;5092530;28;20208;-51
2023/05/03 06:23:41;;;;;;;4.83;3.40;;;15.30;31.90;;;;;;5092330;28;20414;-51
2023/05/03 06:26:06;;;;;;;6.65;3.45;;;15.30;31.90;;;;;;5092594;28;20659;-53
2023/05/03 06:28:32;;;;;;;5.20;3.40;;;15.30;31.90;;;;;;5092741;28;20176;-52
2023/05/03 06:30:58;;;;;;;6.67;4.47;;;15.40;31.60;;;;;;5092219;28;20452;-51
2023/05/03 06:33:24;;;;;;;5.20;3.23;;;15.30;31.80;;;;;;5092299;28;20179;-51
2023/05/03 06:35:50;;;;;;;3.13;2.78;;;15.30;31.40;;;;;;5092716;28;20176;-53
2023/05/03 06:38:16;;;;;;;7.13;3.53;;;15.30;31.60;;;;;;5092261;28;20840;-53
2023/05/03 06:40:44;;;;;;;4.65;3.05;;;15.40;31.90;;;;;;5092677;28;20199;-50
2023/05/03 06:43:10;;;;;;;5.78;3.40;;;15.50;31.50;;;;;;5091444;28;20248;-53
2023/05/03 06:45:35;;;;;;;6.03;3.30;;;15.60;31.10;;;;;;5092250;28;20191;-50
2023/05/03 06:48:01;;;;;;;9.33;4.00;;;15.60;30.50;;;;;;5092416;28;20164;-53
2023/05/03 06:50:27;;;;;;;5.00;3.67;;;15.70;30.60;;;;;;5092434;28;20187;-52
2023/05/03 06:52:53;;;;;;;3.93;3.53;;;15.80;30.30;;;;;;5092000;28;20171;-50
2023/05/03 06:55:19;;;;;;;5.82;3.25;;;15.80;30.50;;;;;;5092126;28;20164;-50
2023/05/03 06:57:47;;;;;;;6.40;3.07;;;15.90;30.40;;;;;;5092130;28;20229;-52
2023/05/03 07:00:13;;;;;;;4.95;3.50;;;16.00;30.50;;;;;;5091831;28;20211;-50
2023/05/03 07:02:39;;;;;;;3.40;3.10;;;16.20;29.90;;;;;;5091755;28;20474;-52
2023/05/03 07:05:05;;;;;;;5.30;3.30;;;16.30;29.90;;;;;;5092314;28;20168;-52
2023/05/03 07:07:32;;;;;;;7.18;3.13;;;16.40;29.60;;;;;;5091997;28;20562;-50
2023/05/03 07:09:58;;;;;;;8.63;3.83;;;16.40;28.30;;;;;;5091917;28;20200;-53
2023/05/03 07:12:26;;;;;;;8.57;4.13;;;16.40;29.20;;;;;;5091750;28;20206;-53
2023/05/03 07:14:53;;;;;;;4.20;3.08;;;16.50;30.10;;;;;;5092165;28;20578;-50
2023/05/03 07:17:20;;;;;;;7.63;3.35;;;16.70;29.60;;;;;;5092033;28;20203;-50
2023/05/03 07:19:47;;;;;;;3.35;2.83;;;16.90;29.10;;;;;;5091879;28;20203;-53
2023/05/03 07:22:13;;;;;;;5.05;3.05;;;17.00;28.50;;;;;;5091827;28;20582;-51
2023/05/03 07:24:39;;;;;;;7.33;3.20;;;17.10;29.20;;;;;;5092031;28;20801;-53
2023/05/03 07:27:05;;;;;;;4.30;3.60;;;17.20;28.40;;;;;;5091861;28;20412;-51
2023/05/03 07:29:31;;;;;;;6.05;2.35;;;17.40;28.20;;;;;;5091921;28;20179;-51
2023/05/03 07:31:57;;;;;;;3.85;2.80;;;17.40;28.00;;;;;;5091537;28;20200;-53
2023/05/03 07:34:23;;;;;;;6.22;2.90;;;17.60;27.00;;;;;;5091728;28;20229;-50
2023/05/03 07:36:49;;;;;;;4.27;2.40;;;17.60;25.60;;;;;;5091746;28;20180;-52
2023/05/03 07:39:16;;;;;;;12.27;4.00;;;17.50;25.60;;;;;;5091937;28;20450;-52
2023/05/03 07:41:41;;;;;;;3.55;2.70;;;17.50;26.50;;;;;;5091715;28;20803;-52
2023/05/03 07:44:07;;;;;;;5.67;3.60;;;17.70;27.30;;;;;;5091481;28;20180;-52
2023/05/03 07:46:33;;;;;;;3.03;2.60;;;17.80;26.80;;;;;;5091707;28;20216;-52
2023/05/03 07:49:04;;;;;;;4.57;3.05;;;17.90;26.20;;;;;;5091719;28;20660;-52
2023/05/03 07:51:37;;;;;;;18.80;5.25;;;18.00;25.40;;;;;;5091626;28;20271;-52
2023/05/03 07:54:03;;;;;;;9.02;4.00;;;18.00;26.00;;;;;;5091846;28;20536;-53
2023/05/03 07:56:29;;;;;;;4.18;3.22;;;18.10;25.20;;;;;;5095330;28;20184;-50
2023/05/03 07:58:56;;;;;;;4.07;3.08;;;18.10;26.30;;;;;;5095238;28;20200;-53
2023/05/03 08:01:22;;;;;;;4.88;4.07;;;18.30;26.90;;;;;;5095522;28;20200;-50
2023/05/03 08:03:51;;;;;;;4.28;3.63;;;18.40;24.70;;;;;;5095085;28;20183;-50
2023/05/03 08:06:17;;;;;;;4.13;3.33;;;18.30;23.80;;;;;;5095127;28;20233;-52
2023/05/03 08:08:43;;;;;;;3.20;2.90;;;18.30;25.90;;;;;;5095143;28;20570;-50
2023/05/03 08:11:09;;;;;;;4.35;3.10;;;18.50;23.80;;;;;;5094789;28;20483;-52
2023/05/03 08:13:36;;;;;;;7.38;4.18;;;18.50;25.40;;;;;;5094666;28;20271;-50
2023/05/03 08:16:02;;;;;;;5.85;3.13;;;18.50;24.80;;;;;;5095118;28;20175;-51
2023/05/03 08:18:28;;;;;;;3.88;2.90;;;18.60;26.20;;;;;;5094937;28;20200;-52
2023/05/03 08:20:54;;;;;;;5.90;2.80;;;18.80;26.00;;;;;;5094896;28;20191;-50
2023/05/03 08:23:20;;;;;;;4.17;3.70;;;19.00;25.10;;;;;;5094692;28;20160;-52
2023/05/03 08:25:47;;;;;;;4.72;3.63;;;19.20;26.20;;;;;;5094676;28;20402;-53
2023/05/03 08:28:12;;;;;;;4.88;2.80;;;19.40;26.30;;;;;;5094673;28;20168;-50
2023/05/03 08:30:38;;;;;;;4.20;3.00;;;19.60;26.20;;;;;;5094807;28;20203;-53
2023/05/03 08:33:04;;;;;;;4.28;3.30;;;19.90;25.20;;;;;;5094586;28;20532;-53
2023/05/03 08:35:30;;;;;;;4.90;3.08;;;20.10;25.00;;;;;;5094677;28;20532;-50
2023/05/03 08:37:56;;;;;;;4.03;3.20;;;20.20;25.60;;;;;;5094898;28;20168;-50
2023/05/03 08:40:22;;;;;;;6.53;3.23;;;20.30;24.10;;;;;;5094323;28;20464;-53
2023/05/03 08:42:49;;;;;;;4.28;3.63;;;20.40;24.10;;;;;;5094266;28;20164;-51
2023/05/03 08:45:16;;;;;;;5.25;3.90;;;20.50;24.00;;;;;;5094437;28;20182;-51
2023/05/03 08:47:45;;;;;;;3.83;3.42;;;20.50;22.80;;;;;;5094704;28;20168;-53
2023/05/03 08:50:12;;;;;;;6.10;3.20;;;20.50;24.10;;;;;;5094263;28;20206;-51
2023/05/03 08:52:42;;;;;;;3.65;2.95;;;20.60;23.80;;;;;;5094138;28;20179;-51
2023/05/03 08:55:09;;;;;;;6.18;3.80;;;20.60;22.80;;;;;;5094131;28;20630;-53
2023/05/03 08:57:35;;;;;;;3.83;3.05;;;20.60;22.80;;;;;;5094198;28;20171;-51
2023/05/03 09:00:01;;;;;;;5.85;3.20;;;20.50;21.90;;;;;;5094047;28;20699;-51
2023/05/03 09:02:27;;;;;;;6.18;3.75;;;20.30;23.20;;;;;;5093945;28;20172;-53
2023/05/03 09:04:55;;;;;;;14.10;3.20;;;20.10;23.10;;;;;;5094094;28;20648;-51
2023/05/03 09:07:20;;;;;;;6.00;3.80;;;20.00;22.50;;;;;;5091956;28;20180;-51
2023/05/03 09:09:46;;;;;;;7.50;4.30;;;19.80;22.30;;;;;;5093899;28;20225;-54
2023/05/03 09:12:31;;;;;;;6.10;3.93;;;19.70;23.20;;;;;;5093756;28;20175;-52
2023/05/03 09:14:57;;;;;;;7.78;3.50;;;19.50;22.70;;;;;;5093896;28;20643;-52
2023/05/03 09:17:23;;;;;;;5.07;3.40;;;19.40;23.80;;;;;;5093846;28;20308;-51
2023/05/03 09:19:53;;;;;;;5.50;3.00;;;19.40;24.30;;;;;;5093541;28;20988;-53
2023/05/03 09:22:21;;;;;;;3.80;2.95;;;19.40;22.60;;;;;;5093759;28;20260;-51
2023/05/03 09:25:05;;;;;;;4.07;3.67;;;19.40;23.40;;;;;;5093922;28;20171;-51
2023/05/03 09:27:31;;;;;;;4.55;3.47;;;19.30;23.30;;;;;;5093872;28;20203;-53
2023/05/03 09:30:15;;;;;;;4.37;3.37;;;19.20;22.10;;;;;;5093530;28;20618;-51
2023/05/03 09:32:48;;;;;;;4.22;3.03;;;19.20;23.00;;;;;;5093364;28;20874;-52
2023/05/03 09:35:14;;;;;;;3.95;2.88;;;19.40;22.50;;;;;;5093526;28;20175;-52
2023/05/03 09:37:40;;;;;;;6.15;3.78;;;19.50;23.70;;;;;;5093349;28;20175;-54
2023/05/03 09:40:10;;;;;;;4.97;3.50;;;19.60;24.10;;;;;;5093507;28;20208;-52
2023/05/03 09:42:36;;;;;;;5.28;3.75;;;19.70;23.80;;;;;;5093169;28;20153;-51
2023/05/03 09:45:03;;;;;;;6.68;4.60;;;19.70;24.00;;;;;;5093189;28;20523;-53
2023/05/03 09:47:28;;;;;;;7.38;3.35;;;19.60;23.20;;;;;;5093484;28;20556;-53
2023/05/03 09:49:54;;;;;;;4.73;3.03;;;19.60;23.80;;;;;;5093150;28;20684;-53
2023/05/03 09:52:21;;;;;;;5.90;3.75;;;19.60;23.90;;;;;;5093165;28;20172;-51
2023/05/03 09:54:48;;;;;;;3.67;3.20;;;19.50;22.90;;;;;;5093168;28;20574;-53
2023/05/03 09:57:14;;;;;;;6.90;4.15;;;19.50;22.90;;;;;;5093073;28;20179;-53
2023/05/03 09:59:41;;;;;;;6.03;3.87;;;19.40;22.40;;;;;;5092795;28;20230;-53
2023/05/03 10:02:07;;;;;;;5.55;3.55;;;19.60;23.80;;;;;;5092911;28;20512;-53
2023/05/03 10:04:55;;;;;;;6.95;3.25;;;20.00;23.70;;;;;;5092998;28;20562;-51
2023/05/03 10:07:24;;;;;;;5.35;3.63;;;20.30;22.80;;;;;;5092862;28;20187;-51
2023/05/03 10:09:50;;;;;;;5.30;3.13;;;20.20;23.30;;;;;;5092691;28;20556;-54
2023/05/03 10:12:17;;;;;;;4.30;3.33;;;20.20;23.50;;;;;;5092895;28;20250;-51
2023/05/03 10:14:48;;;;;;;5.80;3.30;;;20.20;23.60;;;;;;5092985;28;20176;-51
2023/05/03 10:17:17;;;;;;;5.97;4.00;;;20.20;23.30;;;;;;5092706;28;20186;-51
2023/05/03 10:19:50;;;;;;;7.03;3.15;;;20.30;22.20;;;;;;5092625;28;20215;-51
2023/05/03 10:22:16;;;;;;;4.88;3.53;;;20.40;23.60;;;;;;5092438;28;20639;-51
2023/05/03 10:25:01;;;;;;;7.10;3.70;;;20.40;20.20;;;;;;5092501;28;20183;-51
2023/05/03 10:27:50;;;;;;;3.90;2.90;;;20.20;22.60;;;;;;5092607;28;20180;-51
2023/05/03 10:30:37;;;;;;;4.97;3.80;;;20.40;24.20;;;;;;5092324;28;20425;-54
2023/05/03 10:33:09;;;;;;;4.97;3.40;;;20.70;22.70;;;;;;5092125;28;20456;-51
2023/05/03 10:35:38;;;;;;;5.40;2.70;;;20.80;23.10;;;;;;5092434;28;20233;-54
2023/05/03 10:38:23;;;;;;;6.78;3.05;;;21.00;22.70;;;;;;5092420;28;20172;-54
2023/05/03 10:40:50;;;;;;;9.00;3.50;;;21.00;22.10;;;;;;5092206;28;20537;-51
2023/05/03 10:43:31;;;;;;;5.32;2.95;;;21.00;21.90;;;;;;5091561;28;20559;-54
2023/05/03 10:46:01;;;;;;;6.25;3.75;;;21.10;22.40;;;;;;5092155;28;20167;-52
2023/05/03 10:48:27;;;;;;;4.88;3.00;;;21.20;22.30;;;;;;5092187;28;20226;-54
2023/05/03 10:50:54;;;;;;;8.90;3.22;;;21.50;22.90;;;;;;5092096;28;20229;-51
2023/05/03 10:53:35;;;;;;;4.47;3.63;;;21.70;22.30;;;;;;5091919;28;20646;-51
2023/05/03 10:56:12;;;;;;;8.37;4.63;;;22.00;20.00;;;;;;5092217;28;20470;-51
2023/05/03 10:58:43;;;;;;;5.83;2.63;;;22.00;20.90;;;;;;5092226;28;20566;-53
2023/05/03 11:01:11;;;;;;;4.80;2.80;;;22.20;22.30;;;;;;5092068;28;20422;-53
2023/05/03 11:03:52;;;;;;;8.80;4.10;;;22.10;20.10;;;;;;5092125;28;20432;-53
2023/05/03 11:06:30;;;;;;;5.00;3.57;;;22.00;21.30;;;;;;5092031;28;20391;-53
2023/05/03 11:08:56;;;;;;;4.00;3.10;;;22.10;22.00;;;;;;5091955;28;20978;-53
2023/05/03 11:11:21;;;;;;;4.47;2.93;;;22.20;22.40;;;;;;5091892;28;20501;-51
2023/05/03 11:13:49;;;;;;;6.27;3.57;;;22.50;23.50;;;;;;5092064;28;20783;-53
2023/05/03 11:16:15;;;;;;;4.17;3.77;;;22.70;23.00;;;;;;5091982;28;20190;-51
2023/05/03 11:18:41;;;;;;;5.03;3.23;;;22.90;22.50;;;;;;5091807;28;20802;-53
2023/05/03 11:21:06;;;;;;;4.47;2.70;;;23.10;21.80;;;;;;5090589;28;20207;-53
2023/05/03 11:23:32;;;;;;;5.63;3.10;;;23.20;20.90;;;;;;5091711;28;20183;-51
2023/05/03 11:25:58;;;;;;;3.67;2.90;;;23.30;20.60;;;;;;5091913;28;20165;-51
2023/05/03 11:28:25;;;;;;;7.57;3.30;;;23.20;20.10;;;;;;5091784;28;20704;-53
2023/05/03 11:30:50;;;;;;;5.73;2.90;;;23.20;20.00;;;;;;5095124;28;20239;-53
2023/05/03 11:33:16;;;;;;;8.13;3.53;;;23.30;20.80;;;;;;5095560;28;20483;-53
2023/05/03 11:35:42;;;;;;;5.73;2.97;;;23.30;20.20;;;;;;5095850;28;20497;-53
2023/05/03 11:38:09;;;;;;;4.07;2.90;;;23.40;21.10;;;;;;5095588;28;20294;-51
2023/05/03 11:40:38;;;;;;;4.47;2.90;;;23.50;20.70;;;;;;5095857;28;20441;-53
2023/05/03 11:43:06;;;;;;;2.47;2.27;;;23.50;19.90;;;;;;5095745;28;20412;-53
2023/05/03 11:45:39;;;;;;;3.70;2.60;;;23.50;20.50;;;;;;5095939;28;20413;-53
2023/05/03 11:48:06;;;;;;;8.03;3.73;;;23.60;20.80;;;;;;5095522;28;20917;-53
2023/05/03 11:50:54;;;;;;;5.07;2.87;;;23.70;20.00;;;;;;5095407;28;20929;-53
2023/05/03 11:53:25;;;;;;;3.60;2.80;;;23.70;20.30;;;;;;5095282;28;20390;-53
2023/05/03 11:55:52;;;;;;;4.10;2.77;;;23.70;20.80;;;;;;5095431;28;20398;-53
2023/05/03 11:58:25;;;;;;;7.07;3.40;;;23.70;20.50;;;;;;5095194;28;20413;-53
2023/05/03 12:00:55;;;;;;;5.60;3.27;;;23.70;18.20;;;;;;5095555;28;20422;-53
2023/05/03 12:03:23;;;;;;;4.30;3.03;;;23.70;18.70;;;;;;5095131;28;20889;-53
2023/05/03 12:05:51;;;;;;;7.03;2.43;;;23.60;19.40;;;;;;5095208;28;20467;-53
2023/05/03 12:08:18;;;;;;;6.43;3.20;;;23.70;20.60;;;;;;5095003;28;20961;-51
2023/05/03 12:10:44;;;;;;;4.43;2.47;;;23.80;19.20;;;;;;5094898;28;20414;-52
2023/05/03 12:13:10;;;;;;;7.10;2.90;;;23.80;19.90;;;;;;5094821;28;20402;-53
2023/05/03 12:15:37;;;;;;;6.83;4.27;;;24.00;20.00;;;;;;5095397;28;20957;-52
2023/05/03 12:18:09;;;;;;;4.10;2.87;;;23.90;20.00;;;;;;5095105;28;20207;-53
2023/05/03 12:20:37;;;;;;;4.47;3.10;;;24.00;19.90;;;;;;5094875;28;20457;-54
2023/05/03 12:23:07;;;;;;;3.67;2.67;;;24.20;18.10;;;;;;5094719;28;20426;-52
2023/05/03 12:25:35;;;;;;;7.50;3.27;;;24.10;18.90;;;;;;5094833;28;20394;-53
2023/05/03 12:28:02;;;;;;;4.40;2.73;;;24.20;20.70;;;;;;5094881;28;20499;-51
2023/05/03 12:30:28;;;;;;;6.13;3.30;;;24.30;20.00;;;;;;5094604;28;20478;-54
2023/05/03 12:32:54;;;;;;;4.23;3.83;;;24.40;17.60;;;;;;5094545;28;20394;-54
2023/05/03 12:35:21;;;;;;;4.87;2.73;;;24.40;18.90;;;;;;5094718;28;20401;-51
2023/05/03 12:37:48;;;;;;;5.70;2.93;;;24.50;19.90;;;;;;5094516;28;20398;-52
2023/05/03 12:40:15;;;;;;;3.40;2.87;;;24.60;19.60;;;;;;5094159;28;20786;-54
2023/05/03 12:42:42;;;;;;;3.23;2.90;;;24.70;19.40;;;;;;5093820;28;20398;-51
2023/05/03 12:45:08;;;;;;;3.90;2.60;;;24.80;19.70;;;;;;5094584;28;20398;-54
2023/05/03 12:47:37;;;;;;;7.43;2.43;;;24.90;19.70;;;;;;5094828;28;20416;-54